This is the latest recevied weather packets stored in our database for station/object OK9AIR-13. If no packets are shown the sender has not sent any weather packets the latest 10 day(s).
| Time | Temp. | Humidity | Pressure | Rain* | Wind** | Luminosity | Snow |
|---|---|---|---|---|---|---|---|
| 1788421308 | 26.67° C | 46% | 975.4 hPa | - | - | - | - |
| 1788421245 | 26.67° C | 46% | 975.4 hPa | - | - | - | - |
| 1788420351 | 25° C | 54% | 975.6 hPa | - | - | - | - |
| 1788420288 | 24.44° C | 54% | 975.5 hPa | - | - | - | - |
| 1788419386 | 24.44° C | 57% | 975.5 hPa | - | - | - | - |
| 1788419323 | 23.33° C | 60% | 975.5 hPa | - | - | - | - |
| 1788418422 | 22.78° C | 65% | 975.6 hPa | - | - | - | - |
| 1788418360 | 22.78° C | 66% | 975.6 hPa | - | - | - | - |
| 1788417462 | 22.22° C | 70% | 975.6 hPa | - | - | - | - |
| 1788417398 | 21.67° C | 71% | 975.6 hPa | - | - | - | - |
| 1788416498 | 21.11° C | 76% | 975.5 hPa | - | - | - | - |
| 1788416436 | 20.56° C | 77% | 975.5 hPa | - | - | - | - |
| 1788415538 | 19.44° C | 85% | 975.4 hPa | - | - | - | - |
| 1788415475 | 18.89° C | 88% | 975.4 hPa | - | - | - | - |
| 1788414574 | 17.78° C | 92% | 975.4 hPa | - | - | - | - |
| 1788414511 | 17.22° C | 94% | 975.4 hPa | - | - | - | - |
| 1788413613 | 17.22° C | 94% | 975.3 hPa | - | - | - | - |
| 1788413549 | 17.22° C | 94% | 975.3 hPa | - | - | - | - |
| 1788412650 | 17.22° C | 98% | 975.2 hPa | - | - | - | - |
| 1788412587 | 16.11° C | 100% | 975.2 hPa | - | - | - | - |
| 1788411688 | 15° C | 100% | 975.2 hPa | - | - | - | - |
| 1788411624 | 14.44° C | 100% | 975.2 hPa | - | - | - | - |
| 1788409607 | 15° C | 100% | 975.2 hPa | - | - | - | - |
| 1788409544 | 14.44° C | 100% | 975.2 hPa | - | - | - | - |
| 1788405825 | 15.56° C | 100% | 975.1 hPa | - | - | - | - |
* Rain since midnight (hover to see other rain measurements)
** Current wind speed in m/s (hover to see current wind gust speed)